Time;durP1;ratioP1;P1;durP2;ratioP2;P2;SDS_P1;SDS_P2;PMS_P1;PMS_P2;Temp;Humidity;BMP_temperature;BMP_pressure;BME280_temperature;BME280_humidity;BME280_pressure;Samples;Min_cycle;Max_cycle;Signal;HPM_P1;HPM_P2
2022/01/10 18:16:25;;;;;;;2.80;2.20;;;8.80;49.40;;;;;;6030928;23;20266;-56
2022/01/10 18:20:23;;;;;;;7.15;2.00;;;8.80;48.70;;;;;;5089017;28;21107;-51
2022/01/10 18:22:49;;;;;;;3.20;1.67;;;8.80;49.30;;;;;;5091172;28;20168;-52
2022/01/10 18:25:18;;;;;;;4.43;1.53;;;8.70;49.40;;;;;;5089738;28;20188;-52
2022/01/10 18:27:46;;;;;;;3.75;1.75;;;8.60;49.30;;;;;;5091272;28;20458;-52
2022/01/10 18:30:14;;;;;;;4.25;2.53;;;8.60;49.40;;;;;;5091205;28;20234;-51
2022/01/10 18:32:40;;;;;;;3.35;1.50;;;8.50;49.50;;;;;;5090166;28;20169;-52
2022/01/10 18:35:08;;;;;;;4.53;2.60;;;8.50;49.60;;;;;;5090829;28;20174;-51
2022/01/10 18:37:35;;;;;;;2.40;1.45;;;8.50;49.60;;;;;;5090317;28;20200;-51
2022/01/10 18:40:03;;;;;;;5.38;2.80;;;8.50;49.60;;;;;;5090654;28;20197;-51
2022/01/10 18:42:29;;;;;;;6.20;1.80;;;8.50;49.60;;;;;;5090682;28;20173;-52
2022/01/10 18:44:55;;;;;;;1.67;0.95;;;8.50;49.60;;;;;;5090584;28;20259;-52
2022/01/10 18:47:25;;;;;;;3.38;2.03;;;8.50;49.60;;;;;;5090556;28;20164;-52
2022/01/10 18:49:52;;;;;;;3.20;2.03;;;8.50;49.50;;;;;;5090508;28;20627;-52
2022/01/10 18:52:18;;;;;;;2.45;1.10;;;8.50;49.50;;;;;;5090748;28;20280;-52
2022/01/10 18:54:44;;;;;;;3.90;1.85;;;8.50;49.60;;;;;;5090162;28;20176;-52
2022/01/10 18:57:10;;;;;;;1.90;1.30;;;8.50;49.60;;;;;;5090220;28;20176;-52
2022/01/10 18:59:37;;;;;;;8.70;1.93;;;8.50;49.60;;;;;;5090217;28;20272;-52
2022/01/10 19:02:04;;;;;;;3.17;1.70;;;8.50;49.70;;;;;;5090509;28;20634;-52
2022/01/10 19:04:30;;;;;;;6.40;1.30;;;8.60;49.60;;;;;;5090238;28;20164;-52
2022/01/10 19:06:56;;;;;;;2.57;2.10;;;8.60;49.60;;;;;;5088974;28;20531;-52
2022/01/10 19:09:22;;;;;;;5.73;2.70;;;8.60;49.60;;;;;;5090265;28;20406;-52
2022/01/10 19:11:48;;;;;;;3.50;2.00;;;8.70;49.50;;;;;;5090158;28;20603;-52
2022/01/10 19:14:15;;;;;;;4.63;1.98;;;8.70;49.50;;;;;;5089408;28;20187;-52
2022/01/10 19:16:42;;;;;;;6.35;2.88;;;8.70;49.40;;;;;;5090168;28;20176;-52
2022/01/10 19:19:08;;;;;;;5.07;2.53;;;8.70;49.40;;;;;;5089688;28;20214;-52
2022/01/10 19:21:35;;;;;;;4.13;2.88;;;8.70;49.40;;;;;;5089957;28;20255;-52
2022/01/10 19:24:02;;;;;;;4.28;2.55;;;8.70;49.40;;;;;;5089958;28;20180;-52
2022/01/10 19:26:28;;;;;;;4.32;2.35;;;8.70;49.50;;;;;;5090199;28;20574;-52
2022/01/10 19:28:55;;;;;;;4.97;2.42;;;8.70;49.50;;;;;;5089810;28;20170;-52
2022/01/10 19:31:22;;;;;;;3.50;2.15;;;8.60;49.40;;;;;;5078448;28;20203;-52
2022/01/10 19:33:50;;;;;;;2.38;1.35;;;8.60;49.40;;;;;;5074903;28;20532;-52
2022/01/10 19:36:15;;;;;;;3.97;2.53;;;8.70;49.50;;;;;;5076138;28;20163;-52
2022/01/10 19:38:42;;;;;;;5.13;2.53;;;8.60;49.30;;;;;;5076122;28;20192;-52
2022/01/10 19:41:08;;;;;;;11.88;2.70;;;8.70;49.20;;;;;;5076220;28;20763;-52
2022/01/10 19:43:34;;;;;;;3.70;2.45;;;8.60;49.10;;;;;;5075950;28;20185;-52
2022/01/10 19:46:00;;;;;;;6.40;2.83;;;8.60;49.10;;;;;;5076011;28;20173;-52
2022/01/10 19:48:27;;;;;;;6.00;2.78;;;8.50;49.10;;;;;;5076127;28;20559;-52
2022/01/10 19:50:54;;;;;;;5.13;3.03;;;8.50;49.10;;;;;;5074656;28;20173;-52
2022/01/10 19:53:20;;;;;;;6.32;3.30;;;8.50;49.10;;;;;;5075917;28;20628;-52
2022/01/10 19:55:46;;;;;;;4.80;2.22;;;8.50;49.00;;;;;;5075840;28;20173;-52
2022/01/10 19:58:12;;;;;;;7.53;2.55;;;8.50;49.10;;;;;;5075678;28;20168;-52
2022/01/10 20:00:38;;;;;;;4.43;2.37;;;8.50;49.20;;;;;;5075764;28;20535;-52
2022/01/10 20:03:04;;;;;;;4.27;2.77;;;8.50;49.20;;;;;;5074915;28;20177;-52
2022/01/10 20:05:32;;;;;;;5.93;2.55;;;8.50;49.10;;;;;;5075786;28;20407;-52
2022/01/10 20:08:04;;;;;;;5.80;3.60;;;8.50;49.10;;;;;;5074890;28;20183;-52
2022/01/10 20:10:31;;;;;;;8.30;3.47;;;8.50;49.10;;;;;;5075900;28;20163;-52
2022/01/10 20:13:01;;;;;;;5.70;2.95;;;8.50;48.70;;;;;;5075792;28;20176;-52
2022/01/10 20:15:31;;;;;;;6.55;3.97;;;8.50;48.80;;;;;;5075465;28;20172;-52
2022/01/10 20:17:58;;;;;;;4.90;2.58;;;8.50;48.80;;;;;;5075223;28;20889;-52
2022/01/10 20:20:25;;;;;;;6.55;3.25;;;8.40;48.80;;;;;;5075391;28;20173;-52
2022/01/10 20:22:51;;;;;;;5.00;2.63;;;8.50;49.00;;;;;;5075372;28;20161;-52
2022/01/10 20:25:22;;;;;;;5.20;3.15;;;8.50;48.90;;;;;;5075579;28;20553;-52
2022/01/10 20:27:49;;;;;;;4.93;2.28;;;8.50;48.80;;;;;;5075530;28;20206;-52
2022/01/10 20:30:16;;;;;;;4.70;2.17;;;8.50;48.80;;;;;;5075444;28;20170;-52
2022/01/10 20:32:43;;;;;;;4.82;2.92;;;8.50;48.70;;;;;;5075386;28;20222;-52
2022/01/10 20:35:09;;;;;;;4.32;2.40;;;8.50;48.60;;;;;;5075007;28;20165;-52
2022/01/10 20:37:35;;;;;;;3.92;3.17;;;8.50;48.60;;;;;;5075033;28;20164;-52
2022/01/10 20:40:01;;;;;;;6.00;2.88;;;8.40;48.60;;;;;;5074898;28;20193;-52
2022/01/10 20:42:30;;;;;;;6.27;2.87;;;8.40;48.60;;;;;;5074018;28;20639;-52
2022/01/10 20:44:56;;;;;;;4.80;2.55;;;8.40;48.60;;;;;;5075061;28;20420;-52
2022/01/10 20:47:21;;;;;;;5.25;2.75;;;8.40;48.60;;;;;;5074922;28;20219;-52
2022/01/10 20:49:47;;;;;;;5.93;3.27;;;8.30;48.60;;;;;;5074780;28;20573;-52
2022/01/10 20:52:13;;;;;;;7.30;3.07;;;8.30;48.60;;;;;;5074858;28;20167;-51
2022/01/10 20:54:39;;;;;;;7.50;3.50;;;8.30;48.60;;;;;;5074756;28;20250;-52
2022/01/10 20:57:05;;;;;;;9.50;3.67;;;8.30;48.60;;;;;;5074655;28;20170;-52
2022/01/10 20:59:32;;;;;;;4.90;2.60;;;8.30;48.50;;;;;;5074674;28;20731;-52
2022/01/10 21:01:59;;;;;;;5.13;3.15;;;8.20;48.50;;;;;;5074453;28;20224;-52
2022/01/10 21:04:25;;;;;;;10.98;3.40;;;8.30;48.70;;;;;;5074454;28;20172;-52
2022/01/10 21:06:51;;;;;;;5.23;2.77;;;8.30;48.60;;;;;;5074459;28;20173;-52
2022/01/10 21:09:17;;;;;;;9.23;3.07;;;8.30;48.50;;;;;;5074530;28;20724;-52
2022/01/10 21:11:44;;;;;;;9.27;3.83;;;8.30;48.40;;;;;;5074396;28;20210;-52
2022/01/10 21:14:10;;;;;;;6.55;2.67;;;8.20;48.10;;;;;;5074284;28;20527;-52
2022/01/10 21:16:37;;;;;;;6.78;3.13;;;8.20;48.10;;;;;;5072931;28;20172;-52
2022/01/10 21:19:03;;;;;;;4.93;3.38;;;8.20;48.20;;;;;;5072642;28;20319;-52
2022/01/10 21:21:29;;;;;;;5.95;3.22;;;8.10;48.20;;;;;;5074223;28;20656;-52
2022/01/10 21:23:55;;;;;;;4.95;2.70;;;8.10;48.30;;;;;;5074133;28;20161;-52
2022/01/10 21:26:21;;;;;;;7.95;4.07;;;8.10;48.40;;;;;;5074113;28;20173;-52
2022/01/10 21:28:47;;;;;;;9.93;3.65;;;8.10;48.30;;;;;;5074118;28;20210;-52
2022/01/10 21:31:13;;;;;;;6.90;3.10;;;8.10;48.00;;;;;;5074001;28;20174;-52
2022/01/10 21:33:39;;;;;;;8.73;3.20;;;8.10;48.10;;;;;;5073942;28;20407;-52
2022/01/10 21:36:06;;;;;;;5.30;3.93;;;8.10;48.10;;;;;;5073896;28;20914;-52
2022/01/10 21:38:32;;;;;;;8.38;3.40;;;8.10;48.00;;;;;;5073934;28;20435;-52
2022/01/10 21:40:57;;;;;;;11.73;4.50;;;8.10;48.00;;;;;;5073895;28;20223;-52
2022/01/10 21:43:23;;;;;;;6.00;4.10;;;8.10;48.20;;;;;;5073921;28;20414;-52
2022/01/10 21:45:49;;;;;;;6.27;4.03;;;8.10;48.10;;;;;;5073667;28;20169;-52
2022/01/10 21:48:15;;;;;;;7.00;3.10;;;8.10;48.20;;;;;;5073749;28;20426;-52
2022/01/10 21:50:41;;;;;;;8.03;3.23;;;8.10;48.30;;;;;;5073736;28;20176;-52
2022/01/10 21:53:07;;;;;;;9.38;4.53;;;8.10;48.20;;;;;;5073455;28;20929;-52
2022/01/10 21:55:33;;;;;;;7.03;3.87;;;8.10;48.20;;;;;;5073692;28;20184;-52
2022/01/10 21:58:01;;;;;;;16.30;3.67;;;8.10;48.10;;;;;;5073591;28;20168;-52
2022/01/10 22:00:29;;;;;;;10.55;3.50;;;8.20;48.00;;;;;;5073683;28;20510;-52
2022/01/10 22:02:56;;;;;;;7.15;2.53;;;8.10;48.00;;;;;;5073600;28;20204;-52
2022/01/10 22:05:23;;;;;;;10.38;4.30;;;8.10;48.00;;;;;;5073806;28;20621;-52
2022/01/10 22:07:50;;;;;;;8.73;4.15;;;8.20;48.00;;;;;;5073593;28;20505;-52
2022/01/10 22:10:17;;;;;;;6.45;3.72;;;8.10;48.00;;;;;;5072241;28;20164;-52
2022/01/10 22:12:45;;;;;;;6.80;3.47;;;8.20;48.00;;;;;;5073499;28;20196;-52
2022/01/10 22:15:12;;;;;;;3.97;3.35;;;8.20;48.00;;;;;;5073715;28;20227;-52
2022/01/10 22:17:37;;;;;;;5.82;3.10;;;8.20;48.00;;;;;;5073445;28;20175;-52
2022/01/10 22:20:07;;;;;;;5.93;3.67;;;8.20;48.80;;;;;;5073169;28;20228;-52
2022/01/10 22:22:33;;;;;;;11.55;4.15;;;8.20;48.20;;;;;;5073436;28;20164;-52
2022/01/10 22:24:59;;;;;;;7.47;4.10;;;8.20;48.00;;;;;;5072657;28;20183;-52
2022/01/10 22:27:24;;;;;;;7.90;3.43;;;8.20;48.10;;;;;;5073347;28;20164;-52
2022/01/10 22:29:50;;;;;;;13.67;3.87;;;8.20;48.00;;;;;;5073370;28;20164;-52
2022/01/10 22:32:16;;;;;;;5.73;2.33;;;8.20;48.00;;;;;;5073345;28;20504;-52
2022/01/10 22:34:42;;;;;;;7.57;3.20;;;8.20;47.90;;;;;;5073307;28;20411;-52
2022/01/10 22:37:08;;;;;;;3.60;2.87;;;8.20;47.70;;;;;;5071963;28;20667;-52
2022/01/10 22:39:34;;;;;;;7.80;3.40;;;8.20;47.80;;;;;;5073372;28;20504;-52
2022/01/10 22:42:00;;;;;;;9.38;4.30;;;8.20;47.90;;;;;;5073206;28;20656;-52
2022/01/10 22:44:27;;;;;;;11.40;4.90;;;8.20;48.00;;;;;;5073192;28;20165;-52
2022/01/10 22:46:54;;;;;;;9.90;4.82;;;8.20;47.80;;;;;;5073256;28;20403;-52
2022/01/10 22:49:20;;;;;;;11.73;3.90;;;8.20;47.80;;;;;;5073127;28;20722;-52
2022/01/10 22:51:46;;;;;;;7.67;5.33;;;8.10;47.70;;;;;;5073259;28;20169;-52
2022/01/10 22:54:13;;;;;;;13.07;5.00;;;8.10;47.60;;;;;;5073109;28;20173;-52
2022/01/10 22:56:39;;;;;;;14.02;3.70;;;8.00;47.50;;;;;;5073087;28;20165;-52
2022/01/10 22:59:05;;;;;;;10.57;5.68;;;8.00;47.70;;;;;;5072939;28;20193;-52
2022/01/10 23:01:30;;;;;;;11.55;5.60;;;7.90;47.80;;;;;;5073306;28;20168;-52
2022/01/10 23:03:57;;;;;;;10.53;5.13;;;7.90;47.80;;;;;;5073098;28;20524;-52
2022/01/10 23:06:23;;;;;;;14.43;5.97;;;7.90;47.20;;;;;;5075427;28;20164;-52
2022/01/10 23:08:51;;;;;;;12.82;4.75;;;7.80;47.30;;;;;;5076816;28;20251;-52
2022/01/10 23:11:18;;;;;;;14.43;5.43;;;7.80;47.60;;;;;;5076933;28;20247;-52
2022/01/10 23:13:44;;;;;;;8.02;4.63;;;7.70;47.90;;;;;;5076619;28;20196;-52
2022/01/10 23:16:10;;;;;;;17.13;5.63;;;7.80;47.90;;;;;;5076877;28;20165;-52
2022/01/10 23:18:36;;;;;;;9.43;5.50;;;7.70;47.80;;;;;;5076448;28;20228;-52
2022/01/10 23:21:03;;;;;;;20.77;5.23;;;7.70;47.90;;;;;;5076555;28;20176;-52
2022/01/10 23:23:30;;;;;;;20.50;5.88;;;7.70;47.60;;;;;;5076654;28;20414;-52
2022/01/10 23:25:57;;;;;;;18.95;5.30;;;7.70;47.60;;;;;;5076464;28;20240;-52
2022/01/10 23:28:24;;;;;;;8.25;4.15;;;7.70;47.60;;;;;;5076364;28;20260;-52
2022/01/10 23:30:51;;;;;;;11.68;4.40;;;7.70;47.70;;;;;;5076555;28;20596;-52
2022/01/10 23:33:19;;;;;;;10.13;5.88;;;7.70;47.70;;;;;;5076279;28;20169;-52
2022/01/10 23:35:46;;;;;;;13.18;4.80;;;7.70;47.40;;;;;;5076229;28;20168;-52
2022/01/10 23:38:12;;;;;;;17.30;6.40;;;7.60;46.70;;;;;;5074810;28;20540;-52
2022/01/10 23:40:38;;;;;;;11.00;4.72;;;7.50;46.70;;;;;;5076259;28;20172;-52
2022/01/10 23:43:08;;;;;;;18.10;5.85;;;7.40;46.90;;;;;;5076184;28;20255;-52
2022/01/10 23:45:35;;;;;;;8.23;3.63;;;7.40;47.30;;;;;;5076051;28;20173;-52
2022/01/10 23:48:04;;;;;;;13.30;7.22;;;7.30;47.40;;;;;;5076307;28;20176;-52
2022/01/10 23:50:33;;;;;;;11.07;5.43;;;7.40;47.70;;;;;;5076056;28;20180;-52
2022/01/10 23:53:01;;;;;;;19.65;6.78;;;7.40;47.80;;;;;;5075991;28;20565;-52
2022/01/10 23:55:28;;;;;;;11.60;5.25;;;7.40;48.40;;;;;;5075849;28;20256;-52
2022/01/10 23:57:59;;;;;;;9.63;3.85;;;7.50;47.50;;;;;;5075990;28;20169;-52
